createdAt,value
2023-01-02T00:00:33.224Z,14.70
2023-01-02T00:01:33.176Z,15.10
2023-01-02T00:02:33.255Z,19.00
2023-01-02T00:03:33.716Z,22.00
2023-01-02T00:04:33.200Z,15.90
2023-01-02T00:05:33.100Z,19.60
2023-01-02T00:06:33.094Z,18.60
2023-01-02T00:07:33.086Z,19.20
2023-01-02T00:08:33.093Z,17.20
2023-01-02T00:09:33.103Z,20.50
2023-01-02T00:10:33.090Z,16.00
2023-01-02T00:11:33.059Z,20.00
2023-01-02T00:12:33.032Z,20.20
2023-01-02T00:13:33.060Z,16.10
2023-01-02T00:14:33.030Z,17.30
2023-01-02T00:15:33.073Z,16.30
2023-01-02T00:16:33.095Z,17.80
2023-01-02T00:17:32.984Z,18.90
2023-01-02T00:18:32.943Z,19.60
2023-01-02T00:19:32.947Z,19.90
2023-01-02T00:20:32.931Z,17.70
2023-01-02T00:21:32.958Z,16.90
2023-01-02T00:22:32.998Z,17.20
2023-01-02T00:23:32.981Z,18.50
2023-01-02T00:24:32.903Z,16.80
2023-01-02T00:25:32.892Z,17.00
2023-01-02T00:26:32.866Z,16.80
2023-01-02T00:27:32.875Z,16.20
2023-01-02T00:28:32.831Z,18.70
2023-01-02T00:29:32.841Z,20.00
2023-01-02T00:30:38.133Z,16.00
2023-01-02T00:31:32.911Z,16.00
2023-01-02T00:32:32.816Z,16.10
2023-01-02T00:33:32.839Z,20.00
2023-01-02T00:34:32.768Z,14.90
2023-01-02T00:35:32.770Z,17.50
2023-01-02T00:36:32.750Z,16.70
2023-01-02T00:37:32.759Z,19.50
2023-01-02T00:38:32.736Z,20.00
2023-01-02T00:39:32.778Z,16.40
2023-01-02T00:40:32.692Z,17.50
2023-01-02T00:41:32.711Z,20.20
2023-01-02T00:42:32.757Z,16.40
2023-01-02T00:43:32.674Z,17.10
2023-01-02T00:44:32.668Z,16.00
2023-01-02T00:45:32.783Z,17.80
2023-01-02T00:46:32.699Z,18.00
2023-01-02T00:47:32.654Z,14.80
2023-01-02T00:48:32.629Z,18.60
2023-01-02T00:49:32.635Z,17.80
2023-01-02T00:50:32.647Z,17.60
2023-01-02T00:51:32.629Z,17.70
2023-01-02T00:52:32.569Z,17.00
2023-01-02T00:53:32.607Z,19.30
2023-01-02T00:54:32.578Z,14.10
2023-01-02T00:55:32.651Z,20.40
2023-01-02T00:56:32.574Z,18.10
2023-01-02T00:57:32.522Z,16.60
2023-01-02T00:58:32.494Z,16.60
2023-01-02T00:59:32.499Z,20.30
2023-01-02T01:00:32.522Z,16.10
2023-01-02T01:01:32.618Z,21.00
2023-01-02T01:02:32.589Z,18.70
2023-01-02T01:03:32.438Z,20.10
2023-01-02T01:04:32.420Z,19.10
2023-01-02T01:05:32.440Z,18.90
2023-01-02T01:06:32.393Z,19.20
2023-01-02T01:07:32.438Z,17.60
2023-01-02T01:08:32.407Z,20.20
2023-01-02T01:09:32.392Z,18.90
2023-01-02T01:10:32.389Z,16.00
2023-01-02T01:11:32.369Z,19.70
2023-01-02T01:12:32.391Z,20.80
2023-01-02T01:13:32.320Z,18.50
2023-01-02T01:14:32.309Z,20.90
2023-01-02T01:15:32.295Z,20.50
2023-01-02T01:16:32.353Z,19.80
2023-01-02T01:17:32.292Z,19.60
2023-01-02T01:18:32.307Z,18.90
2023-01-02T01:19:32.293Z,17.20
2023-01-02T01:20:32.251Z,17.40
2023-01-02T01:21:32.236Z,20.20
2023-01-02T01:22:32.257Z,24.00
2023-01-02T01:23:32.234Z,16.00
2023-01-02T01:24:32.252Z,22.30
2023-01-02T01:25:32.192Z,19.90
2023-01-02T01:26:32.168Z,21.50
2023-01-02T01:27:32.172Z,23.60
2023-01-02T01:28:32.172Z,20.00
2023-01-02T01:29:32.177Z,17.00
2023-01-02T01:30:32.185Z,19.40
2023-01-02T01:31:32.182Z,19.00
2023-01-02T01:32:32.118Z,21.60
2023-01-02T01:33:32.104Z,20.20
2023-01-02T01:34:32.086Z,20.40
2023-01-02T01:35:32.080Z,20.10
2023-01-02T01:36:32.151Z,20.10
2023-01-02T01:37:32.064Z,21.70
2023-01-02T01:38:32.037Z,15.70
2023-01-02T01:39:32.040Z,19.20
2023-01-02T01:40:32.030Z,20.90
2023-01-02T01:41:32.000Z,21.40
2023-01-02T01:42:32.031Z,20.00
2023-01-02T01:43:31.981Z,16.40
2023-01-02T01:44:31.983Z,16.90
2023-01-02T01:45:32.018Z,15.60
2023-01-02T01:46:31.974Z,18.80
2023-01-02T01:47:31.925Z,20.10
2023-01-02T01:48:31.941Z,17.30
2023-01-02T01:49:31.917Z,17.10
2023-01-02T01:50:31.906Z,19.30
2023-01-02T01:51:31.883Z,20.60
2023-01-02T01:52:31.928Z,19.70
2023-01-02T01:53:31.871Z,16.90
2023-01-02T01:54:31.918Z,15.70
2023-01-02T01:55:31.853Z,18.70
2023-01-02T01:56:31.838Z,17.40
2023-01-02T01:57:31.834Z,16.80
2023-01-02T01:58:31.803Z,20.10
2023-01-02T01:59:31.823Z,19.50
2023-01-02T02:00:31.802Z,21.90
2023-01-02T02:01:31.865Z,15.70
2023-01-02T02:02:31.882Z,17.60
2023-01-02T02:03:31.751Z,17.30
2023-01-02T02:04:31.756Z,19.60
2023-01-02T02:05:31.751Z,16.80
2023-01-02T02:06:32.008Z,16.20
2023-01-02T02:07:31.729Z,15.00
2023-01-02T02:08:31.710Z,17.80
2023-01-02T02:09:31.693Z,17.90
2023-01-02T02:10:31.685Z,15.80
2023-01-02T02:11:31.693Z,16.60
2023-01-02T02:12:31.690Z,14.00
2023-01-02T02:13:31.679Z,14.70
2023-01-02T02:14:31.632Z,13.10
2023-01-02T02:15:31.638Z,15.90
2023-01-02T02:16:31.647Z,14.90
2023-01-02T02:17:31.593Z,15.40
2023-01-02T02:18:31.615Z,15.90
2023-01-02T02:19:31.577Z,13.00
2023-01-02T02:20:31.544Z,14.80
2023-01-02T02:21:31.555Z,15.70
2023-01-02T02:22:31.534Z,16.10
2023-01-02T02:23:31.532Z,13.70
2023-01-02T02:24:31.551Z,15.00
2023-01-02T02:25:31.499Z,15.70
2023-01-02T02:26:31.474Z,17.10
2023-01-02T02:27:31.485Z,14.70
2023-01-02T02:28:31.502Z,15.80
2023-01-02T02:29:31.447Z,15.20
2023-01-02T02:30:31.511Z,10.90
2023-01-02T02:31:31.501Z,13.00
2023-01-02T02:32:31.426Z,16.60
2023-01-02T02:33:31.421Z,12.40
2023-01-02T02:34:31.388Z,11.70
2023-01-02T02:35:31.469Z,12.40
2023-01-02T02:36:31.415Z,14.20
2023-01-02T02:37:31.383Z,13.10
2023-01-02T02:38:31.364Z,13.80
2023-01-02T02:39:31.361Z,15.30
2023-01-02T02:40:31.317Z,16.50
2023-01-02T02:41:31.323Z,12.20
2023-01-02T02:42:31.326Z,16.10
2023-01-02T02:43:31.320Z,13.80
2023-01-02T02:44:31.280Z,15.50
2023-01-02T02:45:31.335Z,14.40
2023-01-02T02:46:31.256Z,14.00
2023-01-02T02:47:31.303Z,19.50
2023-01-02T02:48:31.226Z,16.20
2023-01-02T02:49:31.228Z,16.10
2023-01-02T02:50:31.215Z,14.10
2023-01-02T02:51:31.205Z,14.90
2023-01-02T02:52:31.194Z,14.70
2023-01-02T02:53:31.233Z,12.90
2023-01-02T02:54:31.167Z,16.20
2023-01-02T02:55:31.138Z,14.70
2023-01-02T02:56:31.171Z,14.90
2023-01-02T02:57:31.143Z,17.40
2023-01-02T02:58:31.138Z,16.80
2023-01-02T02:59:31.175Z,16.00
2023-01-02T03:00:31.122Z,13.10
2023-01-02T03:01:31.454Z,14.90
2023-01-02T03:02:31.263Z,17.30
2023-01-02T03:03:31.152Z,16.70
2023-01-02T03:04:31.066Z,15.30
2023-01-02T03:05:31.093Z,14.60
2023-01-02T03:06:31.067Z,15.40
2023-01-02T03:07:31.037Z,18.70
2023-01-02T03:08:33.264Z,17.10
2023-01-02T03:09:30.992Z,12.80
2023-01-02T03:10:30.988Z,14.50
2023-01-02T03:11:31.014Z,15.80
2023-01-02T03:12:30.955Z,15.20
2023-01-02T03:13:40.598Z,13.60
2023-01-02T03:14:30.987Z,15.10
2023-01-02T03:15:30.919Z,17.10
2023-01-02T03:16:30.971Z,16.10
2023-01-02T03:17:30.896Z,15.20
2023-01-02T03:18:30.890Z,13.50
2023-01-02T03:19:30.871Z,16.40
2023-01-02T03:20:30.882Z,14.20
2023-01-02T03:21:31.590Z,17.00
2023-01-02T03:22:30.860Z,15.90
2023-01-02T03:23:30.826Z,13.80
2023-01-02T03:24:30.832Z,13.40
2023-01-02T03:25:30.827Z,13.00
2023-01-02T03:26:30.814Z,18.50
2023-01-02T03:27:30.802Z,17.90
2023-01-02T03:28:30.829Z,16.10
2023-01-02T03:29:30.773Z,15.20
2023-01-02T03:30:30.780Z,18.30
2023-01-02T03:31:30.735Z,15.40
2023-01-02T03:32:30.750Z,11.70
2023-01-02T03:33:30.769Z,13.00
2023-01-02T03:34:30.735Z,15.10
2023-01-02T03:35:30.690Z,14.90
2023-01-02T03:36:30.695Z,15.40
2023-01-02T03:37:30.683Z,17.50
2023-01-02T03:38:30.668Z,14.60
2023-01-02T03:39:30.677Z,16.10
2023-01-02T03:40:30.662Z,14.80
2023-01-02T03:41:30.636Z,16.20
2023-01-02T03:42:30.637Z,17.30
2023-01-02T03:43:30.609Z,17.20
2023-01-02T03:44:30.597Z,15.80
2023-01-02T03:45:30.615Z,20.70
2023-01-02T03:46:30.598Z,17.90
2023-01-02T03:47:30.548Z,13.90
2023-01-02T03:48:30.561Z,17.20
2023-01-02T03:49:30.604Z,14.20
2023-01-02T03:50:30.554Z,16.70
2023-01-02T03:51:30.515Z,19.00
2023-01-02T03:52:30.486Z,15.60
2023-01-02T03:53:30.486Z,13.20
2023-01-02T03:54:30.477Z,17.70
2023-01-02T03:55:30.466Z,16.20
2023-01-02T03:56:30.489Z,16.60
2023-01-02T03:57:30.445Z,17.40
2023-01-02T03:58:30.420Z,15.40
2023-01-02T03:59:30.451Z,13.30
2023-01-02T04:00:30.450Z,15.20
2023-01-02T04:01:30.451Z,14.00
2023-01-02T04:02:30.601Z,16.10
2023-01-02T04:03:30.388Z,14.50
2023-01-02T04:04:30.352Z,13.00
2023-01-02T04:05:30.348Z,13.30
2023-01-02T04:06:30.335Z,14.50
2023-01-02T04:07:30.333Z,14.00
2023-01-02T04:08:30.378Z,13.60
2023-01-02T04:09:30.308Z,14.80
2023-01-02T04:10:30.294Z,14.10
2023-01-02T04:11:30.276Z,18.80
2023-01-02T04:12:30.258Z,15.70
2023-01-02T04:13:30.296Z,20.70
2023-01-02T04:14:30.493Z,12.80
2023-01-02T04:15:30.255Z,14.50
2023-01-02T04:16:30.267Z,12.60
2023-01-02T04:17:30.206Z,14.20
2023-01-02T04:18:30.198Z,14.90
2023-01-02T04:19:30.194Z,13.00
2023-01-02T04:20:30.206Z,14.00
2023-01-02T04:21:30.180Z,14.50
2023-01-02T04:22:30.170Z,15.10
2023-01-02T04:23:30.170Z,16.50
2023-01-02T04:24:30.145Z,14.90
2023-01-02T04:25:30.144Z,14.40
2023-01-02T04:26:30.148Z,14.50
2023-01-02T04:27:30.093Z,14.90
2023-01-02T04:28:30.110Z,16.20
2023-01-02T04:29:30.123Z,17.30
2023-01-02T04:30:30.122Z,15.70
2023-01-02T04:31:30.065Z,15.90
2023-01-02T04:32:30.103Z,14.00
2023-01-02T04:33:30.043Z,15.20
2023-01-02T04:34:30.008Z,16.90
2023-01-02T04:35:30.030Z,16.60
2023-01-02T04:36:29.995Z,14.60
2023-01-02T04:37:30.004Z,17.20
2023-01-02T04:38:29.998Z,15.10
2023-01-02T04:39:29.984Z,15.80
2023-01-02T04:40:29.993Z,18.40
2023-01-02T04:41:29.976Z,16.10
2023-01-02T04:42:29.934Z,18.90
2023-01-02T04:43:29.908Z,12.40
2023-01-02T04:44:30.085Z,15.40
2023-01-02T04:45:29.883Z,17.10
2023-01-02T04:46:30.061Z,13.10
2023-01-02T04:47:29.897Z,15.80
2023-01-02T04:48:29.901Z,14.80
2023-01-02T04:49:29.856Z,16.60
2023-01-02T04:50:29.840Z,17.10
2023-01-02T04:51:29.871Z,15.60
2023-01-02T04:52:35.022Z,18.50
2023-01-02T04:53:29.805Z,17.00
2023-01-02T04:54:29.802Z,15.80
2023-01-02T04:55:29.846Z,13.90
2023-01-02T04:56:29.753Z,18.60
2023-01-02T04:57:29.739Z,13.70
2023-01-02T04:58:29.754Z,13.90
2023-01-02T04:59:29.713Z,12.90
2023-01-02T05:00:29.742Z,13.30
2023-01-02T05:01:29.844Z,18.90
2023-01-02T05:02:29.805Z,16.30
2023-01-02T05:03:29.727Z,16.80
2023-01-02T05:04:29.703Z,14.10
2023-01-02T05:05:29.707Z,17.80
2023-01-02T05:06:29.641Z,16.70
2023-01-02T05:07:29.650Z,12.40
2023-01-02T05:08:29.635Z,14.40
2023-01-02T05:09:29.610Z,14.30
2023-01-02T05:10:29.675Z,16.60
2023-01-02T05:11:29.587Z,19.30
2023-01-02T05:12:29.583Z,16.50
2023-01-02T05:13:29.583Z,23.10
2023-01-02T05:14:29.583Z,14.60
2023-01-02T05:15:29.558Z,16.50
2023-01-02T05:16:29.597Z,19.10
2023-01-02T05:17:29.527Z,22.00
2023-01-02T05:18:29.505Z,15.90
2023-01-02T05:19:29.497Z,15.00
2023-01-02T05:20:29.496Z,15.60
2023-01-02T05:21:29.491Z,17.30
2023-01-02T05:22:29.497Z,17.80
2023-01-02T05:23:29.455Z,18.40
2023-01-02T05:24:29.441Z,15.50
2023-01-02T05:25:29.464Z,16.30
2023-01-02T05:26:29.434Z,25.60
2023-01-02T05:27:29.419Z,18.30
2023-01-02T05:28:32.485Z,17.00
2023-01-02T05:29:29.408Z,17.60
2023-01-02T05:30:29.366Z,17.70
2023-01-02T05:31:29.493Z,15.50
2023-01-02T05:32:29.370Z,18.70
2023-01-02T05:33:29.363Z,18.50
2023-01-02T05:34:29.317Z,15.20
2023-01-02T05:35:33.147Z,19.90
2023-01-02T05:36:29.341Z,21.00
2023-01-02T05:37:29.312Z,15.00
2023-01-02T05:38:29.280Z,17.90
2023-01-02T05:39:29.260Z,17.70
2023-01-02T05:40:29.270Z,16.20
2023-01-02T05:41:29.241Z,15.00
2023-01-02T05:42:29.278Z,18.70
2023-01-02T05:43:29.258Z,19.10
2023-01-02T05:44:29.209Z,19.70
2023-01-02T05:45:29.235Z,17.40
2023-01-02T05:46:29.291Z,17.00
2023-01-02T05:47:29.206Z,17.90
2023-01-02T05:48:29.192Z,20.30
2023-01-02T05:49:29.158Z,21.50
2023-01-02T05:50:29.155Z,18.10
2023-01-02T05:51:29.156Z,16.00
2023-01-02T05:52:29.174Z,16.80
2023-01-02T05:53:29.161Z,20.10
2023-01-02T05:54:29.096Z,18.70
2023-01-02T05:55:29.121Z,15.80
2023-01-02T05:56:29.077Z,16.60
2023-01-02T05:57:29.052Z,15.40
2023-01-02T05:58:29.056Z,14.50
2023-01-02T05:59:29.100Z,15.10
2023-01-02T06:00:29.031Z,15.10
2023-01-02T06:01:29.186Z,18.30
2023-01-02T06:02:29.182Z,16.30
2023-01-02T06:03:29.118Z,14.90
2023-01-02T06:04:29.032Z,19.00
2023-01-02T06:05:28.995Z,16.30
2023-01-02T06:06:29.020Z,14.90
2023-01-02T06:07:28.980Z,14.10
2023-01-02T06:08:28.940Z,13.10
2023-01-02T06:09:28.938Z,14.30
2023-01-02T06:10:28.943Z,15.50
2023-01-02T06:11:28.914Z,15.00
2023-01-02T06:12:28.921Z,17.10
2023-01-02T06:13:28.895Z,12.20
2023-01-02T06:14:28.866Z,16.10
2023-01-02T06:15:28.882Z,13.80
2023-01-02T06:16:28.921Z,12.70
2023-01-02T06:17:28.857Z,19.60
2023-01-02T06:18:28.839Z,14.80
2023-01-02T06:19:28.825Z,13.00
2023-01-02T06:20:28.786Z,16.10
2023-01-02T06:21:28.800Z,14.20
2023-01-02T06:22:28.787Z,17.30
2023-01-02T06:23:28.814Z,12.90
2023-01-02T06:24:28.772Z,14.30
2023-01-02T06:25:28.739Z,15.70
2023-01-02T06:26:34.189Z,16.20
2023-01-02T06:27:28.745Z,13.80
2023-01-02T06:28:28.763Z,15.70
2023-01-02T06:29:28.705Z,13.50
2023-01-02T06:30:28.674Z,14.50
2023-01-02T06:31:28.831Z,13.50
2023-01-02T06:32:28.650Z,16.10
2023-01-02T06:33:28.683Z,14.80
2023-01-02T06:34:28.626Z,14.90
2023-01-02T06:35:28.621Z,14.00
2023-01-02T06:36:28.613Z,12.90
2023-01-02T06:37:28.671Z,13.60
2023-01-02T06:38:28.608Z,15.20
2023-01-02T06:39:28.617Z,11.30
2023-01-02T06:40:28.592Z,14.90
2023-01-02T06:41:28.547Z,11.20
2023-01-02T06:42:28.544Z,13.20
2023-01-02T06:43:28.804Z,13.70
2023-01-02T06:44:28.544Z,13.40
2023-01-02T06:45:28.529Z,15.60
2023-01-02T06:46:28.493Z,14.00
2023-01-02T06:47:28.498Z,13.00
2023-01-02T06:48:28.488Z,11.30
2023-01-02T06:49:29.089Z,10.40
2023-01-02T06:50:34.666Z,15.60
2023-01-02T06:51:28.499Z,13.60
2023-01-02T06:52:28.439Z,16.40
2023-01-02T06:53:28.404Z,13.80
2023-01-02T06:54:28.411Z,13.40
2023-01-02T06:55:28.415Z,16.50
2023-01-02T06:56:28.395Z,14.60
2023-01-02T06:57:28.378Z,15.20
2023-01-02T06:58:28.384Z,13.60
2023-01-02T06:59:28.364Z,14.70
2023-01-02T07:00:28.374Z,12.90
2023-01-02T07:01:28.423Z,14.80
2023-01-02T07:02:28.414Z,13.80
2023-01-02T07:03:28.345Z,15.10
2023-01-02T07:04:28.275Z,10.50
2023-01-02T07:05:28.340Z,10.10
2023-01-02T07:06:28.312Z,16.30
2023-01-02T07:07:28.255Z,12.90
2023-01-02T07:08:28.241Z,14.60
2023-01-02T07:09:28.269Z,13.60
2023-01-02T07:10:28.215Z,11.80
2023-01-02T07:11:28.288Z,13.60
2023-01-02T07:12:28.214Z,11.00
2023-01-02T07:13:28.197Z,16.00
2023-01-02T07:14:28.206Z,15.10
2023-01-02T07:15:28.155Z,11.80
2023-01-02T07:16:28.180Z,12.40
2023-01-02T07:17:28.173Z,12.50
2023-01-02T07:18:28.123Z,11.70
2023-01-02T07:19:28.126Z,12.50
2023-01-02T07:20:28.147Z,13.10
2023-01-02T07:21:28.129Z,14.30
2023-01-02T07:22:28.125Z,11.80
2023-01-02T07:23:28.082Z,16.20
2023-01-02T07:24:28.060Z,16.00
2023-01-02T07:25:28.088Z,13.70
2023-01-02T07:26:28.037Z,12.50
2023-01-02T07:27:28.032Z,11.50
2023-01-02T07:28:28.072Z,14.90
2023-01-02T07:29:28.000Z,12.00
2023-01-02T07:30:27.997Z,12.20
2023-01-02T07:31:28.020Z,9.90
2023-01-02T07:32:28.014Z,10.60
2023-01-02T07:33:27.949Z,12.10
2023-01-02T07:34:27.993Z,12.40
2023-01-02T07:35:27.957Z,10.10
2023-01-02T07:36:27.918Z,13.10
2023-01-02T07:37:27.906Z,11.70
2023-01-02T07:38:27.896Z,11.30
2023-01-02T07:39:27.911Z,11.20
2023-01-02T07:40:32.136Z,12.30
2023-01-02T07:41:27.878Z,12.20
2023-01-02T07:42:27.847Z,14.20
2023-01-02T07:43:27.878Z,10.10
2023-01-02T07:44:27.860Z,10.40
2023-01-02T07:45:27.827Z,12.20
2023-01-02T07:46:28.012Z,12.20
2023-01-02T07:47:27.837Z,12.80
2023-01-02T07:48:27.849Z,13.30
2023-01-02T07:49:27.807Z,11.40
2023-01-02T07:50:27.810Z,11.30
2023-01-02T07:51:27.899Z,9.50
2023-01-02T07:52:27.807Z,13.10
2023-01-02T07:53:27.721Z,13.70
2023-01-02T07:54:27.725Z,12.60
2023-01-02T07:55:27.741Z,15.00
2023-01-02T07:56:27.743Z,11.80
2023-01-02T07:57:27.810Z,12.40
2023-01-02T07:58:27.700Z,11.30
2023-01-02T07:59:27.647Z,12.00
2023-01-02T08:00:27.684Z,12.80
2023-01-02T08:01:27.709Z,11.00
2023-01-02T08:02:27.729Z,12.60
2023-01-02T08:03:27.652Z,15.80
2023-01-02T08:04:28.680Z,10.00
2023-01-02T08:05:27.593Z,14.20
2023-01-02T08:06:27.589Z,11.60
2023-01-02T08:07:27.569Z,13.20
2023-01-02T08:08:27.554Z,12.10
2023-01-02T08:09:27.559Z,9.90
2023-01-02T08:10:27.644Z,13.30
2023-01-02T08:11:27.529Z,11.90
2023-01-02T08:12:27.514Z,14.20
2023-01-02T08:13:27.491Z,10.60
2023-01-02T08:14:27.526Z,12.50
2023-01-02T08:15:27.473Z,12.60
2023-01-02T08:16:27.563Z,11.20
2023-01-02T08:17:27.452Z,10.70
2023-01-02T08:18:27.448Z,11.60
2023-01-02T08:19:27.448Z,12.10
2023-01-02T08:20:27.427Z,12.50
2023-01-02T08:21:27.410Z,12.80
2023-01-02T08:22:27.428Z,15.30
2023-01-02T08:23:27.373Z,13.20
2023-01-02T08:24:27.369Z,13.70
2023-01-02T08:25:27.352Z,15.00
2023-01-02T08:26:27.353Z,13.40
2023-01-02T08:27:27.321Z,13.70
2023-01-02T08:28:27.390Z,11.40
2023-01-02T08:29:27.375Z,15.00
2023-01-02T08:30:27.312Z,13.20
2023-01-02T08:31:27.347Z,12.90
2023-01-02T08:32:27.297Z,11.80
2023-01-02T08:33:27.271Z,12.90
2023-01-02T08:34:27.345Z,12.50
2023-01-02T08:35:38.103Z,13.10
2023-01-02T08:36:27.301Z,14.90
2023-01-02T08:37:27.247Z,10.50
2023-01-02T08:38:27.195Z,12.20
2023-01-02T08:39:27.209Z,15.20
2023-01-02T08:40:27.216Z,12.20
2023-01-02T08:41:27.187Z,12.80
2023-01-02T08:42:27.241Z,11.70
2023-01-02T08:43:27.212Z,14.60
2023-01-02T08:44:27.203Z,10.60
2023-01-02T08:45:27.121Z,11.60
2023-01-02T08:46:27.183Z,12.10
2023-01-02T08:47:27.107Z,12.20
2023-01-02T08:48:27.126Z,12.10
2023-01-02T08:49:27.073Z,10.40
2023-01-02T08:50:27.075Z,11.30
2023-01-02T08:51:27.050Z,12.80
2023-01-02T08:52:27.076Z,11.60
2023-01-02T08:53:27.032Z,13.20
2023-01-02T08:54:27.040Z,10.90
2023-01-02T08:55:27.012Z,14.20
2023-01-02T08:56:27.004Z,14.20
2023-01-02T08:57:27.028Z,14.10
2023-01-02T08:58:27.012Z,14.80
2023-01-02T08:59:26.970Z,12.90
2023-01-02T09:00:26.979Z,12.30
2023-01-02T09:01:27.060Z,13.60
2023-01-02T09:02:27.191Z,13.90
2023-01-02T09:03:27.021Z,10.30
2023-01-02T09:04:26.944Z,11.00
2023-01-02T09:05:26.936Z,10.20
2023-01-02T09:06:26.898Z,12.80
2023-01-02T09:07:26.911Z,12.50
2023-01-02T09:08:26.870Z,13.70
2023-01-02T09:09:26.868Z,12.00
2023-01-02T09:10:26.878Z,15.30
2023-01-02T09:11:26.866Z,13.90
2023-01-02T09:12:26.811Z,15.20
2023-01-02T09:13:26.825Z,12.40
2023-01-02T09:14:26.822Z,15.40
2023-01-02T09:15:26.886Z,13.10
2023-01-02T09:16:26.785Z,14.40
2023-01-02T09:17:26.775Z,12.70
2023-01-02T09:18:29.488Z,14.70
2023-01-02T09:19:26.802Z,13.40
2023-01-02T09:20:26.755Z,12.60
2023-01-02T09:21:26.707Z,6.80
2023-01-02T09:22:26.723Z,3.60
2023-01-02T09:23:26.688Z,3.40
2023-01-02T09:24:26.696Z,2.50
2023-01-02T09:25:26.721Z,3.30
2023-01-02T09:26:26.669Z,1.90
2023-01-02T09:27:26.665Z,2.80
2023-01-02T09:28:26.648Z,3.00
2023-01-02T09:29:26.647Z,2.60
2023-01-02T09:30:26.627Z,3.40
2023-01-02T09:31:26.664Z,2.10
2023-01-02T09:32:26.581Z,2.20
2023-01-02T09:33:26.630Z,2.80
2023-01-02T09:34:26.572Z,2.30
2023-01-02T09:35:26.541Z,3.30
2023-01-02T09:36:26.547Z,1.80
2023-01-02T09:37:26.565Z,2.50
2023-01-02T09:38:26.524Z,1.90
2023-01-02T09:39:32.232Z,2.90
2023-01-02T09:40:26.504Z,1.80
2023-01-02T09:41:26.519Z,2.20
2023-01-02T09:42:26.479Z,1.40
2023-01-02T09:43:26.505Z,4.10
2023-01-02T09:44:26.469Z,2.50
2023-01-02T09:45:26.454Z,1.90
2023-01-02T09:46:26.553Z,2.30
2023-01-02T09:47:26.504Z,3.20
2023-01-02T09:48:26.443Z,1.90
2023-01-02T09:49:26.409Z,1.90
2023-01-02T09:50:26.377Z,1.40
2023-01-02T09:51:26.384Z,1.60
2023-01-02T09:52:26.390Z,1.20
2023-01-02T09:53:26.369Z,1.70
2023-01-02T09:54:26.327Z,2.30
2023-01-02T09:55:26.316Z,2.20
2023-01-02T09:56:30.352Z,2.00
2023-01-02T09:57:26.294Z,1.80
2023-01-02T09:58:26.308Z,1.60
2023-01-02T09:59:26.282Z,1.50
2023-01-02T10:00:26.257Z,1.90
2023-01-02T10:01:26.300Z,2.10
2023-01-02T10:02:26.236Z,1.60
2023-01-02T10:03:26.350Z,1.60
2023-01-02T10:04:26.230Z,1.30
2023-01-02T10:05:26.209Z,2.20
2023-01-02T10:06:26.193Z,1.70
2023-01-02T10:07:26.182Z,2.80
2023-01-02T10:08:31.722Z,2.50
2023-01-02T10:09:26.180Z,1.70
2023-01-02T10:10:26.147Z,1.70
2023-01-02T10:11:26.141Z,2.40
2023-01-02T10:12:26.120Z,2.20
2023-01-02T10:13:44.338Z,2.10
2023-01-02T10:14:34.837Z,1.90
2023-01-02T10:15:26.113Z,2.50
2023-01-02T10:16:26.199Z,2.90
2023-01-02T10:17:26.067Z,2.10
2023-01-02T10:18:26.070Z,2.20
2023-01-02T10:19:26.051Z,3.30
2023-01-02T10:20:26.129Z,2.00
2023-01-02T10:21:26.020Z,2.50
2023-01-02T10:22:26.020Z,1.70
2023-01-02T10:23:26.020Z,2.60
2023-01-02T10:24:25.984Z,2.30
2023-01-02T10:25:25.973Z,3.60
2023-01-02T10:26:25.954Z,3.80
2023-01-02T10:27:25.962Z,3.10
2023-01-02T10:28:25.959Z,2.90
2023-01-02T10:29:25.926Z,3.30
2023-01-02T10:30:25.912Z,4.00
2023-01-02T10:31:25.955Z,3.80
2023-01-02T10:32:25.889Z,3.80
2023-01-02T10:33:25.913Z,4.00
2023-01-02T10:34:25.873Z,4.20
2023-01-02T10:35:25.865Z,4.40
2023-01-02T10:36:25.849Z,4.70
2023-01-02T10:37:25.866Z,4.70
2023-01-02T10:38:25.851Z,4.60
2023-01-02T10:39:25.822Z,4.80
2023-01-02T10:40:25.795Z,5.20
2023-01-02T10:41:25.792Z,5.30
2023-01-02T10:42:25.781Z,5.00
2023-01-02T10:43:25.791Z,5.50
2023-01-02T10:44:25.760Z,5.20
2023-01-02T10:45:25.753Z,5.20
2023-01-02T10:46:25.741Z,5.60
2023-01-02T10:47:25.727Z,5.70
2023-01-02T10:48:25.726Z,5.70
2023-01-02T10:49:25.748Z,6.00
2023-01-02T10:50:25.704Z,6.50
2023-01-02T10:51:25.677Z,7.00
2023-01-02T10:52:25.666Z,7.90
2023-01-02T10:53:25.679Z,7.60
2023-01-02T10:54:25.643Z,8.30
2023-01-02T10:55:25.630Z,8.70
2023-01-02T10:56:25.624Z,8.60
2023-01-02T10:57:25.615Z,9.20
2023-01-02T10:58:25.648Z,9.80
2023-01-02T10:59:25.590Z,9.70
2023-01-02T11:00:28.030Z,9.90
2023-01-02T11:01:25.603Z,9.90
2023-01-02T11:02:25.639Z,10.80
2023-01-02T11:03:25.562Z,10.00
2023-01-02T11:04:25.555Z,9.50
2023-01-02T11:05:25.522Z,10.20
2023-01-02T11:06:28.321Z,10.40
2023-01-02T11:07:25.500Z,10.40
2023-01-02T11:08:25.540Z,10.90
2023-01-02T11:09:25.471Z,11.50
2023-01-02T11:10:25.469Z,10.70
2023-01-02T11:11:25.448Z,10.60
2023-01-02T11:12:27.466Z,10.60
2023-01-02T11:13:25.453Z,11.30
2023-01-02T11:14:25.419Z,10.50
2023-01-02T11:15:25.406Z,10.40
2023-01-02T11:16:25.506Z,10.80
2023-01-02T11:17:25.382Z,10.70
2023-01-02T11:18:25.410Z,10.80
2023-01-02T11:19:29.675Z,10.10
2023-01-02T11:20:25.351Z,9.70
2023-01-02T11:21:25.331Z,9.10
2023-01-02T11:22:25.330Z,9.80
2023-01-02T11:23:25.351Z,10.00
2023-01-02T11:24:25.329Z,9.40
2023-01-02T11:25:25.349Z,8.80
2023-01-02T11:26:25.334Z,8.90
2023-01-02T11:27:25.266Z,9.50
2023-01-02T11:28:25.298Z,9.40
2023-01-02T11:29:25.252Z,9.20
2023-01-02T11:30:25.240Z,9.00
2023-01-02T11:31:25.266Z,8.60
2023-01-02T11:32:25.267Z,8.60
2023-01-02T11:33:25.228Z,8.10
2023-01-02T11:34:25.188Z,7.50
2023-01-02T11:35:25.189Z,8.50
2023-01-02T11:36:25.168Z,7.40
2023-01-02T11:37:25.149Z,6.80
2023-01-02T11:38:29.663Z,7.10
2023-01-02T11:39:25.140Z,6.70
2023-01-02T11:40:25.122Z,7.10
2023-01-02T11:41:25.103Z,6.40
2023-01-02T11:42:25.098Z,5.30
2023-01-02T11:43:25.128Z,5.50
2023-01-02T11:44:25.084Z,5.00
2023-01-02T11:45:25.099Z,4.60
2023-01-02T11:46:25.050Z,4.80
2023-01-02T11:47:25.039Z,4.50
2023-01-02T11:48:25.052Z,4.00
2023-01-02T11:49:25.046Z,4.10
2023-01-02T11:50:25.011Z,3.80
2023-01-02T11:51:24.992Z,3.60
2023-01-02T11:52:24.990Z,3.50
2023-01-02T11:53:24.970Z,4.90
2023-01-02T11:54:24.982Z,3.30
2023-01-02T11:55:24.954Z,3.50
2023-01-02T11:56:24.943Z,3.80
2023-01-02T11:57:24.928Z,3.60
2023-01-02T11:58:24.918Z,3.10
2023-01-02T11:59:24.937Z,3.30
2023-01-02T12:00:24.887Z,3.20
2023-01-02T12:01:24.934Z,2.70
2023-01-02T12:02:24.906Z,3.00
2023-01-02T12:03:24.961Z,3.60
2023-01-02T12:04:24.891Z,3.00
2023-01-02T12:05:24.838Z,3.30
2023-01-02T12:06:24.822Z,3.60
2023-01-02T12:07:24.817Z,4.00
2023-01-02T12:08:24.812Z,3.00
2023-01-02T12:09:24.814Z,2.80
2023-01-02T12:10:24.772Z,3.20
2023-01-02T12:11:24.772Z,3.20
2023-01-02T12:12:24.761Z,2.80
2023-01-02T12:13:24.746Z,2.60
2023-01-02T12:14:24.750Z,2.60
2023-01-02T12:15:24.727Z,2.90
2023-01-02T12:16:24.732Z,2.50
2023-01-02T12:17:24.701Z,3.30
2023-01-02T12:18:24.685Z,7.90
2023-01-02T12:19:24.700Z,4.10
2023-01-02T12:20:24.678Z,4.60
2023-01-02T12:21:24.655Z,3.10
2023-01-02T12:22:24.646Z,2.70
2023-01-02T12:23:24.636Z,3.20
2023-01-02T12:24:24.638Z,3.50
2023-01-02T12:25:24.613Z,3.60
2023-01-02T12:26:24.595Z,3.30
2023-01-02T12:27:24.587Z,3.90
2023-01-02T12:28:24.573Z,4.20
2023-01-02T12:29:47.829Z,3.80
2023-01-02T12:30:24.556Z,3.20
2023-01-02T12:31:24.614Z,3.50
2023-01-02T12:32:24.618Z,3.20
2023-01-02T12:33:24.519Z,2.80
2023-01-02T12:34:24.528Z,2.60
2023-01-02T12:35:24.502Z,3.30
2023-01-02T12:36:24.483Z,4.10
2023-01-02T12:37:24.473Z,3.80
2023-01-02T12:38:28.673Z,3.70
2023-01-02T12:39:24.484Z,5.60
2023-01-02T12:40:24.441Z,3.70
2023-01-02T12:41:24.429Z,4.00
2023-01-02T12:42:24.411Z,3.20
2023-01-02T12:43:24.424Z,3.50
2023-01-02T12:44:29.849Z,5.60
2023-01-02T12:45:24.385Z,5.30
2023-01-02T12:46:24.405Z,3.60
2023-01-02T12:47:24.360Z,4.10
2023-01-02T12:48:24.339Z,3.30
2023-01-02T12:49:24.360Z,3.30
2023-01-02T12:50:24.334Z,3.90
2023-01-02T12:51:24.311Z,4.70
2023-01-02T12:52:24.312Z,3.50
2023-01-02T12:53:24.317Z,5.90
2023-01-02T12:54:24.303Z,3.40
2023-01-02T12:55:24.260Z,4.80
2023-01-02T12:56:24.270Z,4.50
2023-01-02T12:57:24.244Z,5.20
2023-01-02T12:58:24.246Z,4.10
2023-01-02T12:59:24.242Z,6.00